<?xml version="1.0" encoding="UTF-8" standalone="no" ?>
<gpx xmlns="http://www.topografix.com/GPX/1/1" xmlns:xsi="http://www.w3.org/2001/XMLSchema-instance" xsi:schemaLocation="http://www.topografix.com/GPX/1/1 http://www.topografix.com/GPX/1/1/gpx.xsd" version="1.1" creator="VisuGPX - https://www.visugpx.com">
  <metadata>
    <name>Alternative Aucelon by Joël</name>
  </metadata>
  <trk>
    <name><![CDATA[Alternative Aucelon by Joël]]></name>
    <trkseg>
      <trkpt lat="44.59311" lon="5.31651">
        <ele>719.7</ele>
        <time>2021-10-08T15:59:59+02:00</time>
      </trkpt>
      <trkpt lat="44.59351" lon="5.31711">
        <ele>703.7</ele>
        <time>2021-10-08T16:00:04+02:00</time>
      </trkpt>
      <trkpt lat="44.59311" lon="5.31831">
        <ele>718.2</ele>
        <time>2021-10-08T16:00:09+02:00</time>
      </trkpt>
      <trkpt lat="44.59314" lon="5.31895">
        <ele>715.4</ele>
        <time>2021-10-08T16:00:14+02:00</time>
      </trkpt>
      <trkpt lat="44.59351" lon="5.31871">
        <ele>710.5</ele>
        <time>2021-10-08T16:00:19+02:00</time>
      </trkpt>
      <trkpt lat="44.59436" lon="5.31819">
        <ele>713.8</ele>
        <time>2021-10-08T16:00:24+02:00</time>
      </trkpt>
      <trkpt lat="44.59468" lon="5.31743">
        <ele>697.4</ele>
        <time>2021-10-08T16:00:29+02:00</time>
      </trkpt>
      <trkpt lat="44.5951" lon="5.31719">
        <ele>698.3</ele>
        <time>2021-10-08T16:00:34+02:00</time>
      </trkpt>
      <trkpt lat="44.59593" lon="5.31723">
        <ele>704.8</ele>
        <time>2021-10-08T16:00:39+02:00</time>
      </trkpt>
      <trkpt lat="44.59613" lon="5.31887">
        <ele>726.4</ele>
        <time>2021-10-08T16:00:44+02:00</time>
      </trkpt>
      <trkpt lat="44.59826" lon="5.32046">
        <ele>733.7</ele>
        <time>2021-10-08T16:00:49+02:00</time>
      </trkpt>
      <trkpt lat="44.59962" lon="5.32393">
        <ele>756.3</ele>
        <time>2021-10-08T16:00:54+02:00</time>
      </trkpt>
      <trkpt lat="44.59976" lon="5.32337">
        <ele>752</ele>
        <time>2021-10-08T16:00:59+02:00</time>
      </trkpt>
      <trkpt lat="44.60007" lon="5.32285">
        <ele>763.6</ele>
        <time>2021-10-08T16:01:04+02:00</time>
      </trkpt>
      <trkpt lat="44.60019" lon="5.32222">
        <ele>763.3</ele>
        <time>2021-10-08T16:01:09+02:00</time>
      </trkpt>
      <trkpt lat="44.60084" lon="5.32138">
        <ele>787.1</ele>
        <time>2021-10-08T16:01:14+02:00</time>
      </trkpt>
      <trkpt lat="44.60095" lon="5.3207">
        <ele>772.1</ele>
        <time>2021-10-08T16:01:19+02:00</time>
      </trkpt>
      <trkpt lat="44.60163" lon="5.32054">
        <ele>775.2</ele>
        <time>2021-10-08T16:01:24+02:00</time>
      </trkpt>
      <trkpt lat="44.60195" lon="5.32174">
        <ele>801.7</ele>
        <time>2021-10-08T16:01:29+02:00</time>
      </trkpt>
      <trkpt lat="44.60325" lon="5.32214">
        <ele>814.3</ele>
        <time>2021-10-08T16:01:34+02:00</time>
      </trkpt>
      <trkpt lat="44.6045" lon="5.3215">
        <ele>826.9</ele>
        <time>2021-10-08T16:01:39+02:00</time>
      </trkpt>
      <trkpt lat="44.6057" lon="5.3203">
        <ele>806.6</ele>
        <time>2021-10-08T16:01:44+02:00</time>
      </trkpt>
      <trkpt lat="44.60612" lon="5.32014">
        <ele>807.2</ele>
        <time>2021-10-08T16:01:49+02:00</time>
      </trkpt>
      <trkpt lat="44.60711" lon="5.32058">
        <ele>813.7</ele>
        <time>2021-10-08T16:01:54+02:00</time>
      </trkpt>
      <trkpt lat="44.608" lon="5.32158">
        <ele>791.1</ele>
        <time>2021-10-08T16:01:59+02:00</time>
      </trkpt>
      <trkpt lat="44.60802" lon="5.32301">
        <ele>801.8</ele>
        <time>2021-10-08T16:02:04+02:00</time>
      </trkpt>
      <trkpt lat="44.60856" lon="5.32317">
        <ele>803.3</ele>
        <time>2021-10-08T16:02:09+02:00</time>
      </trkpt>
      <trkpt lat="44.60907" lon="5.32281">
        <ele>797.5</ele>
        <time>2021-10-08T16:02:14+02:00</time>
      </trkpt>
      <trkpt lat="44.61029" lon="5.32459">
        <ele>813.9</ele>
        <time>2021-10-08T16:02:19+02:00</time>
      </trkpt>
      <trkpt lat="44.61055" lon="5.32527">
        <ele>806.3</ele>
        <time>2021-10-08T16:02:24+02:00</time>
      </trkpt>
      <trkpt lat="44.61044" lon="5.3263">
        <ele>814.5</ele>
        <time>2021-10-08T16:02:29+02:00</time>
      </trkpt>
      <trkpt lat="44.61089" lon="5.32654">
        <ele>807.4</ele>
        <time>2021-10-08T16:02:34+02:00</time>
      </trkpt>
      <trkpt lat="44.61149" lon="5.32666">
        <ele>807.8</ele>
        <time>2021-10-08T16:02:39+02:00</time>
      </trkpt>
      <trkpt lat="44.61285" lon="5.32766">
        <ele>809.7</ele>
        <time>2021-10-08T16:02:44+02:00</time>
      </trkpt>
      <trkpt lat="44.61356" lon="5.32782">
        <ele>804</ele>
        <time>2021-10-08T16:02:49+02:00</time>
      </trkpt>
      <trkpt lat="44.61421" lon="5.32977">
        <ele>800.6</ele>
        <time>2021-10-08T16:02:54+02:00</time>
      </trkpt>
      <trkpt lat="44.61498" lon="5.3293">
        <ele>792.3</ele>
        <time>2021-10-08T16:02:59+02:00</time>
      </trkpt>
      <trkpt lat="44.61521" lon="5.3301">
        <ele>789.5</ele>
        <time>2021-10-08T16:03:04+02:00</time>
      </trkpt>
      <trkpt lat="44.61578" lon="5.33101">
        <ele>785.4</ele>
        <time>2021-10-08T16:03:09+02:00</time>
      </trkpt>
      <trkpt lat="44.61614" lon="5.33173">
        <ele>782.2</ele>
        <time>2021-10-08T16:03:14+02:00</time>
      </trkpt>
      <trkpt lat="44.61662" lon="5.33211">
        <ele>767.2</ele>
        <time>2021-10-08T16:03:19+02:00</time>
      </trkpt>
      <trkpt lat="44.61631" lon="5.33139">
        <ele>771.2</ele>
        <time>2021-10-08T16:03:24+02:00</time>
      </trkpt>
      <trkpt lat="44.61667" lon="5.33165">
        <ele>763.7</ele>
        <time>2021-10-08T16:03:29+02:00</time>
      </trkpt>
      <trkpt lat="44.61762" lon="5.33182">
        <ele>742.3</ele>
        <time>2021-10-08T16:03:34+02:00</time>
      </trkpt>
      <trkpt lat="44.61772" lon="5.33239">
        <ele>734.9</ele>
        <time>2021-10-08T16:03:39+02:00</time>
      </trkpt>
      <trkpt lat="44.61735" lon="5.33273">
        <ele>735.3</ele>
        <time>2021-10-08T16:03:44+02:00</time>
      </trkpt>
      <trkpt lat="44.61794" lon="5.33263">
        <ele>719.9</ele>
        <time>2021-10-08T16:03:49+02:00</time>
      </trkpt>
      <trkpt lat="44.61821" lon="5.33223">
        <ele>713.8</ele>
        <time>2021-10-08T16:03:54+02:00</time>
      </trkpt>
      <trkpt lat="44.61813" lon="5.33323">
        <ele>692.6</ele>
        <time>2021-10-08T16:03:59+02:00</time>
      </trkpt>
      <trkpt lat="44.6175" lon="5.33361">
        <ele>686.9</ele>
        <time>2021-10-08T16:04:04+02:00</time>
      </trkpt>
      <trkpt lat="44.61708" lon="5.33373">
        <ele>688.4</ele>
        <time>2021-10-08T16:04:09+02:00</time>
      </trkpt>
      <trkpt lat="44.61685" lon="5.33402">
        <ele>678.9</ele>
        <time>2021-10-08T16:04:14+02:00</time>
      </trkpt>
      <trkpt lat="44.61629" lon="5.33414">
        <ele>687.5</ele>
        <time>2021-10-08T16:04:19+02:00</time>
      </trkpt>
      <trkpt lat="44.61806" lon="5.33548">
        <ele>682.5</ele>
        <time>2021-10-08T16:04:24+02:00</time>
      </trkpt>
      <trkpt lat="44.61862" lon="5.33567">
        <ele>681.7</ele>
        <time>2021-10-08T16:04:29+02:00</time>
      </trkpt>
      <trkpt lat="44.61966" lon="5.33543">
        <ele>672.2</ele>
        <time>2021-10-08T16:04:34+02:00</time>
      </trkpt>
      <trkpt lat="44.61901" lon="5.33705">
        <ele>684.5</ele>
        <time>2021-10-08T16:04:39+02:00</time>
      </trkpt>
      <trkpt lat="44.61896" lon="5.33779">
        <ele>683.1</ele>
        <time>2021-10-08T16:04:44+02:00</time>
      </trkpt>
      <trkpt lat="44.61876" lon="5.33873">
        <ele>695.9</ele>
        <time>2021-10-08T16:04:49+02:00</time>
      </trkpt>
      <trkpt lat="44.61883" lon="5.33911">
        <ele>698</ele>
        <time>2021-10-08T16:04:54+02:00</time>
      </trkpt>
      <trkpt lat="44.61947" lon="5.33899">
        <ele>699.2</ele>
        <time>2021-10-08T16:04:59+02:00</time>
      </trkpt>
      <trkpt lat="44.62024" lon="5.33763">
        <ele>687.8</ele>
        <time>2021-10-08T16:05:04+02:00</time>
      </trkpt>
      <trkpt lat="44.62046" lon="5.3377">
        <ele>686.9</ele>
        <time>2021-10-08T16:05:09+02:00</time>
      </trkpt>
      <trkpt lat="44.62066" lon="5.33966">
        <ele>677</ele>
        <time>2021-10-08T16:05:14+02:00</time>
      </trkpt>
      <trkpt lat="44.6207" lon="5.34098">
        <ele>667.8</ele>
        <time>2021-10-08T16:05:19+02:00</time>
      </trkpt>
      <trkpt lat="44.62108" lon="5.34198">
        <ele>650.5</ele>
        <time>2021-10-08T16:05:24+02:00</time>
      </trkpt>
      <trkpt lat="44.62104" lon="5.34268">
        <ele>659.4</ele>
        <time>2021-10-08T16:05:29+02:00</time>
      </trkpt>
      <trkpt lat="44.62142" lon="5.34358">
        <ele>629.6</ele>
        <time>2021-10-08T16:05:34+02:00</time>
      </trkpt>
      <trkpt lat="44.62133" lon="5.34416">
        <ele>629.8</ele>
        <time>2021-10-08T16:05:39+02:00</time>
      </trkpt>
      <trkpt lat="44.62161" lon="5.34452">
        <ele>628.9</ele>
        <time>2021-10-08T16:05:44+02:00</time>
      </trkpt>
      <trkpt lat="44.62164" lon="5.34521">
        <ele>643.9</ele>
        <time>2021-10-08T16:05:49+02:00</time>
      </trkpt>
      <trkpt lat="44.62189" lon="5.3459">
        <ele>643.3</ele>
        <time>2021-10-08T16:05:54+02:00</time>
      </trkpt>
      <trkpt lat="44.62221" lon="5.34648">
        <ele>643.3</ele>
        <time>2021-10-08T16:05:59+02:00</time>
      </trkpt>
      <trkpt lat="44.62272" lon="5.34675">
        <ele>639.2</ele>
        <time>2021-10-08T16:06:04+02:00</time>
      </trkpt>
      <trkpt lat="44.62226" lon="5.34785">
        <ele>651.3</ele>
        <time>2021-10-08T16:06:09+02:00</time>
      </trkpt>
      <trkpt lat="44.62358" lon="5.34751">
        <ele>688</ele>
        <time>2021-10-08T16:06:14+02:00</time>
      </trkpt>
      <trkpt lat="44.62392" lon="5.34646">
        <ele>694.4</ele>
        <time>2021-10-08T16:06:19+02:00</time>
      </trkpt>
      <trkpt lat="44.6242" lon="5.34586">
        <ele>712.2</ele>
        <time>2021-10-08T16:06:24+02:00</time>
      </trkpt>
      <trkpt lat="44.62384" lon="5.34486">
        <ele>716.7</ele>
        <time>2021-10-08T16:06:29+02:00</time>
      </trkpt>
      <trkpt lat="44.62401" lon="5.34402">
        <ele>724.5</ele>
        <time>2021-10-08T16:06:34+02:00</time>
      </trkpt>
      <trkpt lat="44.62423" lon="5.34393">
        <ele>729.6</ele>
        <time>2021-10-08T16:06:39+02:00</time>
      </trkpt>
      <trkpt lat="44.62447" lon="5.34393">
        <ele>729</ele>
        <time>2021-10-08T16:06:44+02:00</time>
      </trkpt>
      <trkpt lat="44.62465" lon="5.34496">
        <ele>728.5</ele>
        <time>2021-10-08T16:06:49+02:00</time>
      </trkpt>
      <trkpt lat="44.62494" lon="5.34515">
        <ele>727.1</ele>
        <time>2021-10-08T16:06:54+02:00</time>
      </trkpt>
      <trkpt lat="44.62569" lon="5.34567">
        <ele>715.4</ele>
        <time>2021-10-08T16:06:59+02:00</time>
      </trkpt>
      <trkpt lat="44.62591" lon="5.34617">
        <ele>702.6</ele>
        <time>2021-10-08T16:07:04+02:00</time>
      </trkpt>
      <trkpt lat="44.62593" lon="5.34703">
        <ele>701.3</ele>
        <time>2021-10-08T16:07:09+02:00</time>
      </trkpt>
      <trkpt lat="44.62624" lon="5.34763">
        <ele>690.4</ele>
        <time>2021-10-08T16:07:14+02:00</time>
      </trkpt>
      <trkpt lat="44.62675" lon="5.34777">
        <ele>667.4</ele>
        <time>2021-10-08T16:07:19+02:00</time>
      </trkpt>
      <trkpt lat="44.6277" lon="5.34918">
        <ele>682.4</ele>
        <time>2021-10-08T16:07:24+02:00</time>
      </trkpt>
      <trkpt lat="44.62831" lon="5.34928">
        <ele>666.8</ele>
        <time>2021-10-08T16:07:29+02:00</time>
      </trkpt>
      <trkpt lat="44.62848" lon="5.34997">
        <ele>671.9</ele>
        <time>2021-10-08T16:07:34+02:00</time>
      </trkpt>
      <trkpt lat="44.62884" lon="5.35052">
        <ele>656.4</ele>
        <time>2021-10-08T16:07:39+02:00</time>
      </trkpt>
      <trkpt lat="44.62911" lon="5.35117">
        <ele>644.4</ele>
        <time>2021-10-08T16:07:44+02:00</time>
      </trkpt>
      <trkpt lat="44.62984" lon="5.35219">
        <ele>602.8</ele>
        <time>2021-10-08T16:07:49+02:00</time>
      </trkpt>
      <trkpt lat="44.63011" lon="5.35188">
        <ele>586.1</ele>
        <time>2021-10-08T16:07:54+02:00</time>
      </trkpt>
      <trkpt lat="44.63013" lon="5.3515">
        <ele>582.6</ele>
        <time>2021-10-08T16:07:59+02:00</time>
      </trkpt>
      <trkpt lat="44.6296" lon="5.35016">
        <ele>576</ele>
        <time>2021-10-08T16:08:04+02:00</time>
      </trkpt>
      <trkpt lat="44.62975" lon="5.34863">
        <ele>559.3</ele>
        <time>2021-10-08T16:08:09+02:00</time>
      </trkpt>
      <trkpt lat="44.62967" lon="5.34809">
        <ele>559</ele>
        <time>2021-10-08T16:08:14+02:00</time>
      </trkpt>
      <trkpt lat="44.62919" lon="5.3472">
        <ele>556.6</ele>
        <time>2021-10-08T16:08:19+02:00</time>
      </trkpt>
      <trkpt lat="44.62838" lon="5.3467">
        <ele>548.8</ele>
        <time>2021-10-08T16:08:24+02:00</time>
      </trkpt>
      <trkpt lat="44.62831" lon="5.34605">
        <ele>546.8</ele>
        <time>2021-10-08T16:08:29+02:00</time>
      </trkpt>
      <trkpt lat="44.6285" lon="5.34546">
        <ele>547.8</ele>
        <time>2021-10-08T16:08:34+02:00</time>
      </trkpt>
      <trkpt lat="44.62858" lon="5.34462">
        <ele>542.2</ele>
        <time>2021-10-08T16:08:39+02:00</time>
      </trkpt>
      <trkpt lat="44.62833" lon="5.34407">
        <ele>540.1</ele>
        <time>2021-10-08T16:08:44+02:00</time>
      </trkpt>
      <trkpt lat="44.62766" lon="5.3434">
        <ele>537.6</ele>
        <time>2021-10-08T16:08:49+02:00</time>
      </trkpt>
      <trkpt lat="44.6276" lon="5.34288">
        <ele>538.4</ele>
        <time>2021-10-08T16:08:54+02:00</time>
      </trkpt>
      <trkpt lat="44.6278" lon="5.34156">
        <ele>533.7</ele>
        <time>2021-10-08T16:08:59+02:00</time>
      </trkpt>
      <trkpt lat="44.62754" lon="5.34039">
        <ele>528.2</ele>
        <time>2021-10-08T16:09:04+02:00</time>
      </trkpt>
      <trkpt lat="44.62754" lon="5.33901">
        <ele>533.9</ele>
        <time>2021-10-08T16:09:09+02:00</time>
      </trkpt>
      <trkpt lat="44.627" lon="5.33791">
        <ele>529.2</ele>
        <time>2021-10-08T16:09:14+02:00</time>
      </trkpt>
      <trkpt lat="44.62669" lon="5.337">
        <ele>523</ele>
        <time>2021-10-08T16:09:19+02:00</time>
      </trkpt>
      <trkpt lat="44.62652" lon="5.33626">
        <ele>524.9</ele>
        <time>2021-10-08T16:09:24+02:00</time>
      </trkpt>
      <trkpt lat="44.62596" lon="5.33499">
        <ele>516.7</ele>
        <time>2021-10-08T16:09:29+02:00</time>
      </trkpt>
      <trkpt lat="44.62608" lon="5.3345">
        <ele>513.9</ele>
        <time>2021-10-08T16:09:34+02:00</time>
      </trkpt>
      <trkpt lat="44.6261" lon="5.3341">
        <ele>511.5</ele>
        <time>2021-10-08T16:09:39+02:00</time>
      </trkpt>
      <trkpt lat="44.62598" lon="5.33312">
        <ele>510.5</ele>
        <time>2021-10-08T16:09:44+02:00</time>
      </trkpt>
      <trkpt lat="44.62505" lon="5.33273">
        <ele>505.7</ele>
        <time>2021-10-08T16:09:49+02:00</time>
      </trkpt>
      <trkpt lat="44.62426" lon="5.33273">
        <ele>505.9</ele>
        <time>2021-10-08T16:09:54+02:00</time>
      </trkpt>
      <trkpt lat="44.62392" lon="5.3325">
        <ele>503</ele>
        <time>2021-10-08T16:09:59+02:00</time>
      </trkpt>
      <trkpt lat="44.62369" lon="5.33214">
        <ele>504.7</ele>
        <time>2021-10-08T16:10:04+02:00</time>
      </trkpt>
      <trkpt lat="44.62382" lon="5.33168">
        <ele>508.2</ele>
        <time>2021-10-08T16:10:09+02:00</time>
      </trkpt>
      <trkpt lat="44.62348" lon="5.33008">
        <ele>496.2</ele>
        <time>2021-10-08T16:10:14+02:00</time>
      </trkpt>
      <trkpt lat="44.62391" lon="5.32853">
        <ele>491.5</ele>
        <time>2021-10-08T16:10:19+02:00</time>
      </trkpt>
      <trkpt lat="44.62377" lon="5.32824">
        <ele>494.5</ele>
        <time>2021-10-08T16:10:24+02:00</time>
      </trkpt>
      <trkpt lat="44.62386" lon="5.32786">
        <ele>492.5</ele>
        <time>2021-10-08T16:10:29+02:00</time>
      </trkpt>
      <trkpt lat="44.62387" lon="5.32729">
        <ele>499.4</ele>
        <time>2021-10-08T16:10:34+02:00</time>
      </trkpt>
      <trkpt lat="44.62408" lon="5.32652">
        <ele>490.1</ele>
        <time>2021-10-08T16:10:39+02:00</time>
      </trkpt>
      <trkpt lat="44.62384" lon="5.32585">
        <ele>497.1</ele>
        <time>2021-10-08T16:10:44+02:00</time>
      </trkpt>
      <trkpt lat="44.62363" lon="5.3253">
        <ele>504.8</ele>
        <time>2021-10-08T16:10:49+02:00</time>
      </trkpt>
      <trkpt lat="44.62322" lon="5.32423">
        <ele>520.1</ele>
        <time>2021-10-08T16:10:54+02:00</time>
      </trkpt>
      <trkpt lat="44.62336" lon="5.32291">
        <ele>514.4</ele>
        <time>2021-10-08T16:10:59+02:00</time>
      </trkpt>
      <trkpt lat="44.6228" lon="5.32243">
        <ele>540</ele>
        <time>2021-10-08T16:11:04+02:00</time>
      </trkpt>
      <trkpt lat="44.62316" lon="5.32196">
        <ele>533.5</ele>
        <time>2021-10-08T16:11:09+02:00</time>
      </trkpt>
      <trkpt lat="44.62309" lon="5.32165">
        <ele>537.1</ele>
        <time>2021-10-08T16:11:14+02:00</time>
      </trkpt>
      <trkpt lat="44.62285" lon="5.32122">
        <ele>540.6</ele>
        <time>2021-10-08T16:11:19+02:00</time>
      </trkpt>
      <trkpt lat="44.62258" lon="5.32062">
        <ele>537.7</ele>
        <time>2021-10-08T16:11:24+02:00</time>
      </trkpt>
      <trkpt lat="44.62237" lon="5.32026">
        <ele>537.7</ele>
        <time>2021-10-08T16:11:29+02:00</time>
      </trkpt>
      <trkpt lat="44.62263" lon="5.3194">
        <ele>525.5</ele>
        <time>2021-10-08T16:11:34+02:00</time>
      </trkpt>
      <trkpt lat="44.62239" lon="5.31897">
        <ele>534.2</ele>
        <time>2021-10-08T16:11:39+02:00</time>
      </trkpt>
      <trkpt lat="44.6228" lon="5.31818">
        <ele>525.7</ele>
        <time>2021-10-08T16:11:44+02:00</time>
      </trkpt>
      <trkpt lat="44.62266" lon="5.31763">
        <ele>526.4</ele>
        <time>2021-10-08T16:11:49+02:00</time>
      </trkpt>
      <trkpt lat="44.62254" lon="5.3166">
        <ele>518</ele>
        <time>2021-10-08T16:11:54+02:00</time>
      </trkpt>
      <trkpt lat="44.62215" lon="5.31601">
        <ele>521.3</ele>
        <time>2021-10-08T16:11:59+02:00</time>
      </trkpt>
      <trkpt lat="44.62227" lon="5.31531">
        <ele>515</ele>
        <time>2021-10-08T16:12:04+02:00</time>
      </trkpt>
      <trkpt lat="44.62241" lon="5.31352">
        <ele>505.9</ele>
        <time>2021-10-08T16:12:09+02:00</time>
      </trkpt>
      <trkpt lat="44.6222" lon="5.31302">
        <ele>505.4</ele>
        <time>2021-10-08T16:12:14+02:00</time>
      </trkpt>
      <trkpt lat="44.62179" lon="5.31266">
        <ele>499.4</ele>
        <time>2021-10-08T16:12:19+02:00</time>
      </trkpt>
      <trkpt lat="44.6215" lon="5.31274">
        <ele>497.5</ele>
        <time>2021-10-08T16:12:24+02:00</time>
      </trkpt>
      <trkpt lat="44.62132" lon="5.31307">
        <ele>501.1</ele>
        <time>2021-10-08T16:12:29+02:00</time>
      </trkpt>
      <trkpt lat="44.62116" lon="5.31345">
        <ele>506.5</ele>
        <time>2021-10-08T16:12:34+02:00</time>
      </trkpt>
      <trkpt lat="44.62101" lon="5.31288">
        <ele>507.2</ele>
        <time>2021-10-08T16:12:39+02:00</time>
      </trkpt>
      <trkpt lat="44.62132" lon="5.312">
        <ele>501.8</ele>
        <time>2021-10-08T16:12:44+02:00</time>
      </trkpt>
      <trkpt lat="44.62167" lon="5.31149">
        <ele>503.3</ele>
        <time>2021-10-08T16:12:49+02:00</time>
      </trkpt>
      <trkpt lat="44.62257" lon="5.31164">
        <ele>488.3</ele>
        <time>2021-10-08T16:12:54+02:00</time>
      </trkpt>
      <trkpt lat="44.62279" lon="5.31073">
        <ele>495.3</ele>
        <time>2021-10-08T16:12:59+02:00</time>
      </trkpt>
      <trkpt lat="44.62312" lon="5.31037">
        <ele>486.2</ele>
        <time>2021-10-08T16:13:04+02:00</time>
      </trkpt>
      <trkpt lat="44.62359" lon="5.30889">
        <ele>484</ele>
        <time>2021-10-08T16:13:09+02:00</time>
      </trkpt>
      <trkpt lat="44.62409" lon="5.30824">
        <ele>475.8</ele>
        <time>2021-10-08T16:13:14+02:00</time>
      </trkpt>
      <trkpt lat="44.62506" lon="5.30784">
        <ele>455.5</ele>
        <time>2021-10-08T16:13:19+02:00</time>
      </trkpt>
      <trkpt lat="44.62535" lon="5.3076">
        <ele>446.5</ele>
        <time>2021-10-08T16:13:24+02:00</time>
      </trkpt>
      <trkpt lat="44.62569" lon="5.30719">
        <ele>441.9</ele>
        <time>2021-10-08T16:13:29+02:00</time>
      </trkpt>
      <trkpt lat="44.62587" lon="5.30755">
        <ele>451.7</ele>
        <time>2021-10-08T16:13:34+02:00</time>
      </trkpt>
      <trkpt lat="44.62647" lon="5.30648">
        <ele>461.7</ele>
        <time>2021-10-08T16:13:39+02:00</time>
      </trkpt>
      <trkpt lat="44.62715" lon="5.30571">
        <ele>475.6</ele>
        <time>2021-10-08T16:13:44+02:00</time>
      </trkpt>
      <trkpt lat="44.62693" lon="5.30705">
        <ele>502</ele>
        <time>2021-10-08T16:13:49+02:00</time>
      </trkpt>
      <trkpt lat="44.62742" lon="5.30667">
        <ele>511.4</ele>
        <time>2021-10-08T16:13:54+02:00</time>
      </trkpt>
      <trkpt lat="44.62708" lon="5.30784">
        <ele>530.7</ele>
        <time>2021-10-08T16:13:59+02:00</time>
      </trkpt>
      <trkpt lat="44.62711" lon="5.30872">
        <ele>552.9</ele>
        <time>2021-10-08T16:14:04+02:00</time>
      </trkpt>
      <trkpt lat="44.62739" lon="5.30858">
        <ele>563.4</ele>
        <time>2021-10-08T16:14:09+02:00</time>
      </trkpt>
      <trkpt lat="44.62727" lon="5.30903">
        <ele>564.7</ele>
        <time>2021-10-08T16:14:14+02:00</time>
      </trkpt>
      <trkpt lat="44.62737" lon="5.30965">
        <ele>574.6</ele>
        <time>2021-10-08T16:14:19+02:00</time>
      </trkpt>
      <trkpt lat="44.62762" lon="5.31027">
        <ele>585.8</ele>
        <time>2021-10-08T16:14:24+02:00</time>
      </trkpt>
      <trkpt lat="44.62767" lon="5.30975">
        <ele>587.7</ele>
        <time>2021-10-08T16:14:29+02:00</time>
      </trkpt>
      <trkpt lat="44.62829" lon="5.31199">
        <ele>607.9</ele>
        <time>2021-10-08T16:14:34+02:00</time>
      </trkpt>
    </trkseg>
  </trk>
</gpx>